sensor_id;sensor_type;location;lat;lon;timestamp;pressure;altitude;pressure_sealevel;temperature;humidity
75775;BME280;64505;51.458;7.556;2023-10-09T00:00:11;100228.03;;;12.15;100.00
75775;BME280;64505;51.458;7.556;2023-10-09T00:02:32;100230.97;;;12.07;100.00
75775;BME280;64505;51.458;7.556;2023-10-09T00:04:34;100230.97;;;12.07;100.00
75775;BME280;64505;51.458;7.556;2023-10-09T00:06:38;100226.91;;;12.04;100.00
75775;BME280;64505;51.458;7.556;2023-10-09T00:08:39;100225.28;;;12.03;100.00
75775;BME280;64505;51.458;7.556;2023-10-09T00:10:46;100225.88;;;12.05;100.00
75775;BME280;64505;51.458;7.556;2023-10-09T00:12:55;100232.59;;;12.08;100.00
75775;BME280;64505;51.458;7.556;2023-10-09T00:14:56;100223.59;;;12.09;100.00
75775;BME280;64505;51.458;7.556;2023-10-09T00:17:04;100215.88;;;12.07;100.00
75775;BME280;64505;51.458;7.556;2023-10-09T00:19:12;100213.22;;;12.07;100.00
75775;BME280;64505;51.458;7.556;2023-10-09T00:21:31;100213.44;;;12.06;100.00
75775;BME280;64505;51.458;7.556;2023-10-09T00:23:36;100215.63;;;12.09;100.00
75775;BME280;64505;51.458;7.556;2023-10-09T00:25:38;100219.09;;;12.09;100.00
75775;BME280;64505;51.458;7.556;2023-10-09T00:27:46;100218.66;;;12.12;100.00
75775;BME280;64505;51.458;7.556;2023-10-09T00:29:47;100211.69;;;12.18;100.00
75775;BME280;64505;51.458;7.556;2023-10-09T00:31:51;100215.97;;;12.19;100.00
75775;BME280;64505;51.458;7.556;2023-10-09T00:33:56;100211.41;;;12.26;100.00
75775;BME280;64505;51.458;7.556;2023-10-09T00:36:04;100211.16;;;12.27;100.00
75775;BME280;64505;51.458;7.556;2023-10-09T00:38:11;100206.66;;;12.28;100.00
75775;BME280;64505;51.458;7.556;2023-10-09T00:40:22;100198.25;;;12.31;100.00
75775;BME280;64505;51.458;7.556;2023-10-09T00:42:29;100205.47;;;12.42;100.00
75775;BME280;64505;51.458;7.556;2023-10-09T00:44:36;100200.25;;;12.36;100.00
75775;BME280;64505;51.458;7.556;2023-10-09T00:46:43;100202.09;;;12.35;100.00
75775;BME280;64505;51.458;7.556;2023-10-09T00:48:51;100194.97;;;12.36;100.00
75775;BME280;64505;51.458;7.556;2023-10-09T00:50:54;100189.56;;;12.42;100.00
75775;BME280;64505;51.458;7.556;2023-10-09T00:52:57;100185.88;;;12.43;100.00
75775;BME280;64505;51.458;7.556;2023-10-09T00:55:11;100188.09;;;12.46;100.00
75775;BME280;64505;51.458;7.556;2023-10-09T00:57:22;100183.31;;;12.55;100.00
75775;BME280;64505;51.458;7.556;2023-10-09T00:59:26;100184.31;;;12.54;100.00
75775;BME280;64505;51.458;7.556;2023-10-09T01:01:28;100178.22;;;12.53;100.00
75775;BME280;64505;51.458;7.556;2023-10-09T01:03:36;100186.31;;;12.58;100.00
75775;BME280;64505;51.458;7.556;2023-10-09T01:05:42;100174.81;;;12.64;100.00
75775;BME280;64505;51.458;7.556;2023-10-09T01:07:53;100175.81;;;12.63;100.00
75775;BME280;64505;51.458;7.556;2023-10-09T01:09:59;100170.44;;;12.70;100.00
75775;BME280;64505;51.458;7.556;2023-10-09T01:12:11;100155.56;;;12.69;100.00
75775;BME280;64505;51.458;7.556;2023-10-09T01:14:19;100163.06;;;12.72;100.00
75775;BME280;64505;51.458;7.556;2023-10-09T01:16:23;100158.78;;;12.71;100.00
75775;BME280;64505;51.458;7.556;2023-10-09T01:18:26;100160.97;;;12.74;100.00
75775;BME280;64505;51.458;7.556;2023-10-09T01:20:37;100160.31;;;12.78;100.00
75775;BME280;64505;51.458;7.556;2023-10-09T01:22:46;100156.03;;;12.77;100.00
75775;BME280;64505;51.458;7.556;2023-10-09T01:24:50;100148.44;;;12.81;100.00
75775;BME280;64505;51.458;7.556;2023-10-09T01:26:52;100151.09;;;12.81;100.00
75775;BME280;64505;51.458;7.556;2023-10-09T01:28:55;100148.22;;;12.82;100.00
75775;BME280;64505;51.458;7.556;2023-10-09T01:30:59;100150.66;;;12.84;100.00
75775;BME280;64505;51.458;7.556;2023-10-09T01:33:05;100147.75;;;12.86;100.00
75775;BME280;64505;51.458;7.556;2023-10-09T01:35:14;100151.69;;;12.83;100.00
75775;BME280;64505;51.458;7.556;2023-10-09T01:37:22;100150.66;;;12.84;100.00
75775;BME280;64505;51.458;7.556;2023-10-09T01:39:24;100169.66;;;12.81;100.00
75775;BME280;64505;51.458;7.556;2023-10-09T01:41:29;100171.28;;;12.82;100.00
75775;BME280;64505;51.458;7.556;2023-10-09T01:43:35;100166.56;;;12.84;100.00
75775;BME280;64505;51.458;7.556;2023-10-09T01:45:36;100170.03;;;12.84;100.00
75775;BME280;64505;51.458;7.556;2023-10-09T01:47:47;100159.75;;;12.88;100.00
75775;BME280;64505;51.458;7.556;2023-10-09T01:49:58;100166.13;;;12.87;100.00
75775;BME280;64505;51.458;7.556;2023-10-09T01:52:06;100155.72;;;12.86;100.00
75775;BME280;64505;51.458;7.556;2023-10-09T01:54:10;100168.78;;;12.87;100.00
75775;BME280;64505;51.458;7.556;2023-10-09T01:56:32;100171.44;;;12.87;100.00
75775;BME280;64505;51.458;7.556;2023-10-09T01:58:38;100166.94;;;12.88;100.00
75775;BME280;64505;51.458;7.556;2023-10-09T02:00:39;100171.19;;;12.89;100.00
75775;BME280;64505;51.458;7.556;2023-10-09T02:02:44;100170.16;;;12.90;100.00
75775;BME280;64505;51.458;7.556;2023-10-09T02:04:46;100163.38;;;12.94;100.00
75775;BME280;64505;51.458;7.556;2023-10-09T02:06:48;100163.56;;;12.92;100.00
75775;BME280;64505;51.458;7.556;2023-10-09T02:08:54;100168.06;;;12.92;100.00
75775;BME280;64505;51.458;7.556;2023-10-09T02:10:57;100170.72;;;12.92;100.00
75775;BME280;64505;51.458;7.556;2023-10-09T02:13:01;100166.25;;;12.92;100.00
75775;BME280;64505;51.458;7.556;2023-10-09T02:15:09;100167.66;;;12.95;100.00
75775;BME280;64505;51.458;7.556;2023-10-09T02:17:17;100163.56;;;12.92;100.00
75775;BME280;64505;51.458;7.556;2023-10-09T02:19:19;100161.16;;;12.91;100.00
75775;BME280;64505;51.458;7.556;2023-10-09T02:21:33;100161.97;;;12.91;100.00
75775;BME280;64505;51.458;7.556;2023-10-09T02:23:35;100169.25;;;12.96;100.00
75775;BME280;64505;51.458;7.556;2023-10-09T02:25:40;100159.44;;;12.96;100.00
75775;BME280;64505;51.458;7.556;2023-10-09T02:27:45;100157.38;;;12.98;100.00
75775;BME280;64505;51.458;7.556;2023-10-09T02:29:54;100157.13;;;13.00;100.00
75775;BME280;64505;51.458;7.556;2023-10-09T02:31:59;100156.94;;;13.01;100.00
75775;BME280;64505;51.458;7.556;2023-10-09T02:34:14;100157.28;;;13.05;100.00
75775;BME280;64505;51.458;7.556;2023-10-09T02:36:18;100158.94;;;13.17;100.00
75775;BME280;64505;51.458;7.556;2023-10-09T02:38:19;100150.06;;;13.12;100.00
75775;BME280;64505;51.458;7.556;2023-10-09T02:40:29;100154.09;;;13.14;100.00
75775;BME280;64505;51.458;7.556;2023-10-09T02:42:34;100140.81;;;13.14;100.00
75775;BME280;64505;51.458;7.556;2023-10-09T02:44:36;100144.06;;;13.16;100.00
75775;BME280;64505;51.458;7.556;2023-10-09T02:46:42;100144.84;;;13.17;100.00
75775;BME280;64505;51.458;7.556;2023-10-09T02:48:49;100156.88;;;13.19;100.00
75775;BME280;64505;51.458;7.556;2023-10-09T02:50:54;100157.13;;;13.29;100.00
75775;BME280;64505;51.458;7.556;2023-10-09T02:52:56;100150.19;;;13.28;100.00
75775;BME280;64505;51.458;7.556;2023-10-09T02:55:10;100142.47;;;13.27;100.00
75775;BME280;64505;51.458;7.556;2023-10-09T02:57:16;100151.34;;;13.32;100.00
75775;BME280;64505;51.458;7.556;2023-10-09T02:59:23;100149.28;;;13.35;100.00
75775;BME280;64505;51.458;7.556;2023-10-09T03:01:25;100147.41;;;13.35;100.00
75775;BME280;64505;51.458;7.556;2023-10-09T03:03:27;100140.25;;;13.36;100.00
75775;BME280;64505;51.458;7.556;2023-10-09T03:05:29;100135.53;;;13.38;100.00
75775;BME280;64505;51.458;7.556;2023-10-09T03:07:31;100131.59;;;13.40;100.00
75775;BME280;64505;51.458;7.556;2023-10-09T03:09:32;100140.59;;;13.39;100.00
75775;BME280;64505;51.458;7.556;2023-10-09T03:11:36;100136.91;;;13.40;100.00
75775;BME280;64505;51.458;7.556;2023-10-09T03:13:38;100141.75;;;13.43;100.00
75775;BME280;64505;51.458;7.556;2023-10-09T03:15:39;100138.06;;;13.44;100.00
75775;BME280;64505;51.458;7.556;2023-10-09T03:17:41;100129.84;;;13.46;100.00
75775;BME280;64505;51.458;7.556;2023-10-09T03:19:44;100122.69;;;13.46;100.00
75775;BME280;64505;51.458;7.556;2023-10-09T03:21:47;100117.72;;;13.50;100.00
75775;BME280;64505;51.458;7.556;2023-10-09T03:23:49;100124.66;;;13.51;100.00
75775;BME280;64505;51.458;7.556;2023-10-09T03:25:50;100120.53;;;13.55;100.00
75775;BME280;64505;51.458;7.556;2023-10-09T03:27:52;100120.53;;;13.55;100.00
75775;BME280;64505;51.458;7.556;2023-10-09T03:29:57;100114.97;;;13.56;100.00
75775;BME280;64505;51.458;7.556;2023-10-09T03:31:59;100120.53;;;13.55;100.00
75775;BME280;64505;51.458;7.556;2023-10-09T03:34:01;100120.06;;;13.58;100.00
75775;BME280;64505;51.458;7.556;2023-10-09T03:36:04;100118.00;;;13.60;100.00
75775;BME280;64505;51.458;7.556;2023-10-09T03:38:10;100122.22;;;13.61;100.00
75775;BME280;64505;51.458;7.556;2023-10-09T03:40:18;100114.25;;;13.61;100.00
75775;BME280;64505;51.458;7.556;2023-10-09T03:42:19;100122.03;;;13.62;100.00
75775;BME280;64505;51.458;7.556;2023-10-09T03:44:21;100112.41;;;13.61;100.00
75775;BME280;64505;51.458;7.556;2023-10-09T03:46:23;100118.31;;;13.63;100.00
75775;BME280;64505;51.458;7.556;2023-10-09T03:48:34;100108.25;;;13.65;100.00
75775;BME280;64505;51.458;7.556;2023-10-09T03:50:38;100101.91;;;13.66;100.00
75775;BME280;64505;51.458;7.556;2023-10-09T03:52:39;100100.06;;;13.67;100.00
75775;BME280;64505;51.458;7.556;2023-10-09T03:54:41;100095.78;;;13.66;100.00
75775;BME280;64505;51.458;7.556;2023-10-09T03:56:49;100082.03;;;13.69;100.00
75775;BME280;64505;51.458;7.556;2023-10-09T03:58:51;100079.84;;;13.66;100.00
75775;BME280;64505;51.458;7.556;2023-10-09T04:00:56;100088.38;;;13.68;100.00
75775;BME280;64505;51.458;7.556;2023-10-09T04:02:58;100101.66;;;13.68;100.00
75775;BME280;64505;51.458;7.556;2023-10-09T04:05:01;100093.22;;;13.71;100.00
75775;BME280;64505;51.458;7.556;2023-10-09T04:07:02;100086.53;;;13.68;100.00
75775;BME280;64505;51.458;7.556;2023-10-09T04:09:08;100085.16;;;13.66;100.00
75775;BME280;64505;51.458;7.556;2023-10-09T04:11:28;100085.97;;;13.66;100.00
75775;BME280;64505;51.458;7.556;2023-10-09T04:13:31;100082.03;;;13.69;100.00
75775;BME280;64505;51.458;7.556;2023-10-09T04:15:36;100087.34;;;13.69;100.00
75775;BME280;64505;51.458;7.556;2023-10-09T04:17:37;100081.34;;;13.73;100.00
75775;BME280;64505;51.458;7.556;2023-10-09T04:19:44;100084.34;;;13.77;100.00
75775;BME280;64505;51.458;7.556;2023-10-09T04:22:11;100079.03;;;13.77;100.00
75775;BME280;64505;51.458;7.556;2023-10-09T04:24:27;100081.41;;;13.78;100.00
75775;BME280;64505;51.458;7.556;2023-10-09T04:26:29;100082.50;;;13.77;100.00
75775;BME280;64505;51.458;7.556;2023-10-09T04:28:30;100077.72;;;13.79;100.00
75775;BME280;64505;51.458;7.556;2023-10-09T04:30:38;100069.75;;;13.79;100.00
75775;BME280;64505;51.458;7.556;2023-10-09T04:32:45;100056.72;;;13.78;100.00
75775;BME280;64505;51.458;7.556;2023-10-09T04:34:46;100055.66;;;13.79;100.00
75775;BME280;64505;51.458;7.556;2023-10-09T04:36:51;100067.44;;;13.83;100.00
75775;BME280;64505;51.458;7.556;2023-10-09T04:38:58;100074.13;;;13.86;100.00
75775;BME280;64505;51.458;7.556;2023-10-09T04:41:06;100076.78;;;13.86;100.00
75775;BME280;64505;51.458;7.556;2023-10-09T04:43:09;100070.44;;;13.87;100.00
75775;BME280;64505;51.458;7.556;2023-10-09T04:45:21;100075.75;;;13.87;100.00
75775;BME280;64505;51.458;7.556;2023-10-09T04:47:43;100061.50;;;13.93;100.00
75775;BME280;64505;51.458;7.556;2023-10-09T04:49:51;100060.38;;;13.89;100.00
75775;BME280;64505;51.458;7.556;2023-10-09T04:51:58;100066.75;;;13.88;100.00
75775;BME280;64505;51.458;7.556;2023-10-09T04:54:08;100070.22;;;13.88;100.00
75775;BME280;64505;51.458;7.556;2023-10-09T04:56:16;100071.38;;;13.92;100.00
75775;BME280;64505;51.458;7.556;2023-10-09T04:58:18;100067.06;;;13.91;100.00
75775;BME280;64505;51.458;7.556;2023-10-09T05:00:25;100068.91;;;13.91;100.00
75775;BME280;64505;51.458;7.556;2023-10-09T05:02:27;100064.97;;;13.93;100.00
75775;BME280;64505;51.458;7.556;2023-10-09T05:04:37;100064.97;;;13.93;100.00
75775;BME280;64505;51.458;7.556;2023-10-09T05:06:39;100064.97;;;13.93;100.00
75775;BME280;64505;51.458;7.556;2023-10-09T05:08:48;100069.03;;;13.96;100.00
75775;BME280;64505;51.458;7.556;2023-10-09T05:10:54;100064.28;;;13.98;100.00
75775;BME280;64505;51.458;7.556;2023-10-09T05:12:59;100072.84;;;14.00;100.00
75775;BME280;64505;51.458;7.556;2023-10-09T05:15:01;100070.75;;;14.02;100.00
75775;BME280;64505;51.458;7.556;2023-10-09T05:17:14;100065.44;;;14.02;100.00
75775;BME280;64505;51.458;7.556;2023-10-09T05:19:18;100056.63;;;14.01;100.00
75775;BME280;64505;51.458;7.556;2023-10-09T05:21:43;100058.25;;;14.02;100.00
75775;BME280;64505;51.458;7.556;2023-10-09T05:23:45;100057.22;;;14.03;100.00
75775;BME280;64505;51.458;7.556;2023-10-09T05:26:07;100058.25;;;14.02;100.00
75775;BME280;64505;51.458;7.556;2023-10-09T05:28:28;100059.88;;;14.03;100.00
75775;BME280;64505;51.458;7.556;2023-10-09T05:30:33;100064.72;;;14.06;100.00
75775;BME280;64505;51.458;7.556;2023-10-09T05:32:36;100069.78;;;14.08;100.00
75775;BME280;64505;51.458;7.556;2023-10-09T05:34:49;100071.41;;;14.09;100.00
75775;BME280;64505;51.458;7.556;2023-10-09T05:37:03;100078.69;;;14.13;100.00
75775;BME280;64505;51.458;7.556;2023-10-09T05:39:24;100088.25;;;14.14;100.00
75775;BME280;64505;51.458;7.556;2023-10-09T05:41:46;100088.25;;;14.14;100.00
75775;BME280;64505;51.458;7.556;2023-10-09T05:43:54;100099.72;;;14.15;100.00
75775;BME280;64505;51.458;7.556;2023-10-09T05:46:17;100110.59;;;14.13;100.00
75775;BME280;64505;51.458;7.556;2023-10-09T05:48:18;100124.47;;;14.15;100.00
75775;BME280;64505;51.458;7.556;2023-10-09T05:50:21;100125.50;;;14.14;100.00
75775;BME280;64505;51.458;7.556;2023-10-09T05:52:25;100127.38;;;14.14;100.00
75775;BME280;64505;51.458;7.556;2023-10-09T05:54:50;100122.06;;;14.14;100.00
75775;BME280;64505;51.458;7.556;2023-10-09T05:57:29;100117.50;;;14.14;100.00
75775;BME280;64505;51.458;7.556;2023-10-09T05:59:49;100130.03;;;14.14;100.00
75775;BME280;64505;51.458;7.556;2023-10-09T06:02:09;100127.13;;;14.15;100.00
75775;BME280;64505;51.458;7.556;2023-10-09T06:04:29;100122.63;;;14.16;100.00
75775;BME280;64505;51.458;7.556;2023-10-09T06:06:49;100116.25;;;14.17;100.00
75775;BME280;64505;51.458;7.556;2023-10-09T06:09:05;100127.47;;;14.19;100.00
75775;BME280;64505;51.458;7.556;2023-10-09T06:11:17;100136.50;;;14.18;100.00
75775;BME280;64505;51.458;7.556;2023-10-09T06:13:34;100145.84;;;14.20;100.00
75775;BME280;64505;51.458;7.556;2023-10-09T06:15:48;100138.44;;;14.22;100.00
75775;BME280;64505;51.458;7.556;2023-10-09T06:17:49;100150.47;;;14.25;100.00
75775;BME280;64505;51.458;7.556;2023-10-09T06:19:52;100152.88;;;14.26;100.00
75775;BME280;64505;51.458;7.556;2023-10-09T06:22:00;100156.69;;;14.30;100.00
75775;BME280;64505;51.458;7.556;2023-10-09T06:24:06;100161.19;;;14.30;100.00
75775;BME280;64505;51.458;7.556;2023-10-09T06:26:31;100162.38;;;14.34;100.00
75775;BME280;64505;51.458;7.556;2023-10-09T06:28:34;100162.94;;;14.36;100.00
75775;BME280;64505;51.458;7.556;2023-10-09T06:30:36;100164.56;;;14.37;100.00
75775;BME280;64505;51.458;7.556;2023-10-09T06:32:38;100176.59;;;14.40;100.00
75775;BME280;64505;51.458;7.556;2023-10-09T06:34:54;100180.63;;;14.42;100.00
75775;BME280;64505;51.458;7.556;2023-10-09T06:37:16;100184.66;;;14.45;100.00
75775;BME280;64505;51.458;7.556;2023-10-09T06:39:37;100189.50;;;14.48;100.00
75775;BME280;64505;51.458;7.556;2023-10-09T06:41:51;100183.97;;;14.49;100.00
75775;BME280;64505;51.458;7.556;2023-10-09T06:44:10;100176.53;;;14.51;100.00
75775;BME280;64505;51.458;7.556;2023-10-09T06:46:32;100172.63;;;14.54;100.00
75775;BME280;64505;51.458;7.556;2023-10-09T06:48:45;100172.97;;;14.57;100.00
75775;BME280;64505;51.458;7.556;2023-10-09T06:50:47;100174.06;;;14.61;100.00
75775;BME280;64505;51.458;7.556;2023-10-09T06:53:05;100175.22;;;14.65;100.00
75775;BME280;64505;51.458;7.556;2023-10-09T06:55:12;100174.28;;;14.71;100.00
75775;BME280;64505;51.458;7.556;2023-10-09T06:57:20;100187.44;;;14.78;100.00
75775;BME280;64505;51.458;7.556;2023-10-09T06:59:42;100180.94;;;14.86;100.00
75775;BME280;64505;51.458;7.556;2023-10-09T07:02:03;100184.09;;;14.99;100.00
75775;BME280;64505;51.458;7.556;2023-10-09T07:04:13;100178.28;;;15.02;100.00
75775;BME280;64505;51.458;7.556;2023-10-09T07:06:22;100164.16;;;15.02;100.00
75775;BME280;64505;51.458;7.556;2023-10-09T07:08:44;100160.22;;;15.04;100.00
75775;BME280;64505;51.458;7.556;2023-10-09T07:11:03;100156.59;;;15.10;100.00
75775;BME280;64505;51.458;7.556;2023-10-09T07:13:29;100140.22;;;15.18;100.00
75775;BME280;64505;51.458;7.556;2023-10-09T07:15:31;100142.47;;;15.26;100.00
75775;BME280;64505;51.458;7.556;2023-10-09T07:17:51;100138.59;;;15.34;100.00
75775;BME280;64505;51.458;7.556;2023-10-09T07:19:54;100139.97;;;15.37;100.00
75775;BME280;64505;51.458;7.556;2023-10-09T07:21:55;100136.56;;;15.41;100.00
75775;BME280;64505;51.458;7.556;2023-10-09T07:23:57;100135.28;;;15.44;100.00
75775;BME280;64505;51.458;7.556;2023-10-09T07:26:04;100135.59;;;15.47;100.00
75775;BME280;64505;51.458;7.556;2023-10-09T07:28:19;100138.84;;;15.49;100.00
75775;BME280;64505;51.458;7.556;2023-10-09T07:30:38;100150.09;;;15.51;100.00
75775;BME280;64505;51.458;7.556;2023-10-09T07:32:40;100156.78;;;15.54;100.00
75775;BME280;64505;51.458;7.556;2023-10-09T07:34:50;100160.00;;;15.56;100.00
75775;BME280;64505;51.458;7.556;2023-10-09T07:36:58;100163.78;;;15.60;100.00
75775;BME280;64505;51.458;7.556;2023-10-09T07:39:05;100172.91;;;15.64;100.00
75775;BME280;64505;51.458;7.556;2023-10-09T07:41:17;100193.44;;;15.63;100.00
75775;BME280;64505;51.458;7.556;2023-10-09T07:43:19;100209.03;;;15.71;100.00
75775;BME280;64505;51.458;7.556;2023-10-09T07:45:20;100202.97;;;15.76;100.00
75775;BME280;64505;51.458;7.556;2023-10-09T07:47:22;100206.59;;;15.87;100.00
75775;BME280;64505;51.458;7.556;2023-10-09T07:49:42;100202.13;;;15.92;100.00
75775;BME280;64505;51.458;7.556;2023-10-09T07:51:50;100198.72;;;15.97;100.00
75775;BME280;64505;51.458;7.556;2023-10-09T07:53:53;100180.63;;;15.99;100.00
75775;BME280;64505;51.458;7.556;2023-10-09T07:55:58;100157.72;;;16.03;100.00
75775;BME280;64505;51.458;7.556;2023-10-09T07:58:00;100147.63;;;16.05;100.00
75775;BME280;64505;51.458;7.556;2023-10-09T08:00:12;100142.09;;;16.11;100.00
75775;BME280;64505;51.458;7.556;2023-10-09T08:02:34;100131.97;;;16.13;100.00
75775;BME280;64505;51.458;7.556;2023-10-09T08:04:35;100139.00;;;16.19;100.00
75775;BME280;64505;51.458;7.556;2023-10-09T08:06:54;100131.50;;;16.16;100.00
75775;BME280;64505;51.458;7.556;2023-10-09T08:09:20;100134.41;;;16.15;100.00
75775;BME280;64505;51.458;7.556;2023-10-09T08:11:43;100139.56;;;16.21;100.00
75775;BME280;64505;51.458;7.556;2023-10-09T08:13:48;100148.13;;;16.23;100.00
75775;BME280;64505;51.458;7.556;2023-10-09T08:16:02;100154.59;;;16.28;100.00
75775;BME280;64505;51.458;7.556;2023-10-09T08:18:06;100161.31;;;16.35;100.00
75775;BME280;64505;51.458;7.556;2023-10-09T08:20:23;100161.97;;;16.42;100.00
75775;BME280;64505;51.458;7.556;2023-10-09T08:22:29;100173.81;;;16.51;100.00
75775;BME280;64505;51.458;7.556;2023-10-09T08:24:31;100182.34;;;16.53;100.00
75775;BME280;64505;51.458;7.556;2023-10-09T08:26:43;100185.59;;;16.55;98.69
75775;BME280;64505;51.458;7.556;2023-10-09T08:28:52;100183.50;;;16.57;97.89
75775;BME280;64505;51.458;7.556;2023-10-09T08:30:55;100193.94;;;16.59;98.89
75775;BME280;64505;51.458;7.556;2023-10-09T08:32:57;100204.28;;;16.55;98.65
75775;BME280;64505;51.458;7.556;2023-10-09T08:35:09;100213.34;;;16.54;98.74
75775;BME280;64505;51.458;7.556;2023-10-09T08:37:29;100211.03;;;16.58;98.92
75775;BME280;64505;51.458;7.556;2023-10-09T08:39:31;100208.97;;;16.65;98.34
75775;BME280;64505;51.458;7.556;2023-10-09T08:41:37;100205.75;;;16.63;98.59
75775;BME280;64505;51.458;7.556;2023-10-09T08:43:41;100209.78;;;16.65;97.90
75775;BME280;64505;51.458;7.556;2023-10-09T08:45:48;100214.88;;;16.67;97.22
75775;BME280;64505;51.458;7.556;2023-10-09T08:47:53;100217.84;;;16.70;98.12
75775;BME280;64505;51.458;7.556;2023-10-09T08:49:56;100222.19;;;16.77;97.76
75775;BME280;64505;51.458;7.556;2023-10-09T08:51:58;100225.91;;;16.76;95.75
75775;BME280;64505;51.458;7.556;2023-10-09T08:54:06;100228.88;;;16.79;96.22
75775;BME280;64505;51.458;7.556;2023-10-09T08:56:14;100225.16;;;16.80;96.34
75775;BME280;64505;51.458;7.556;2023-10-09T08:58:24;100211.28;;;16.83;96.74
75775;BME280;64505;51.458;7.556;2023-10-09T09:00:44;100203.84;;;16.85;97.19
75775;BME280;64505;51.458;7.556;2023-10-09T09:02:47;100203.34;;;16.88;97.35
75775;BME280;64505;51.458;7.556;2023-10-09T09:04:49;100180.41;;;16.92;95.00
75775;BME280;64505;51.458;7.556;2023-10-09T09:06:52;100154.81;;;16.96;95.23
75775;BME280;64505;51.458;7.556;2023-10-09T09:08:54;100146.81;;;17.01;95.89
75775;BME280;64505;51.458;7.556;2023-10-09T09:11:09;100138.13;;;17.11;97.57
75775;BME280;64505;51.458;7.556;2023-10-09T09:13:14;100129.31;;;17.15;95.05
75775;BME280;64505;51.458;7.556;2023-10-09T09:15:20;100129.13;;;17.27;94.03
75775;BME280;64505;51.458;7.556;2023-10-09T09:17:32;100134.31;;;17.39;94.27
75775;BME280;64505;51.458;7.556;2023-10-09T09:19:34;100122.84;;;17.43;92.50
75775;BME280;64505;51.458;7.556;2023-10-09T09:21:41;100107.72;;;17.59;94.58
75775;BME280;64505;51.458;7.556;2023-10-09T09:23:53;100103.47;;;17.63;92.65
75775;BME280;64505;51.458;7.556;2023-10-09T09:25:56;100074.06;;;17.63;90.77
75775;BME280;64505;51.458;7.556;2023-10-09T09:28:00;100069.84;;;17.72;90.92
75775;BME280;64505;51.458;7.556;2023-10-09T09:30:25;100074.94;;;17.84;91.24
75775;BME280;64505;51.458;7.556;2023-10-09T09:32:33;100076.59;;;17.90;91.05
75775;BME280;64505;51.458;7.556;2023-10-09T09:34:48;100069.66;;;17.94;89.84
75775;BME280;64505;51.458;7.556;2023-10-09T09:36:55;100064.34;;;18.09;92.57
75775;BME280;64505;51.458;7.556;2023-10-09T09:38:58;100070.22;;;18.06;89.24
75775;BME280;64505;51.458;7.556;2023-10-09T09:41:03;100070.84;;;18.23;89.94
75775;BME280;64505;51.458;7.556;2023-10-09T09:43:09;100064.41;;;18.29;87.96
75775;BME280;64505;51.458;7.556;2023-10-09T09:45:22;100071.94;;;18.47;88.41
75775;BME280;64505;51.458;7.556;2023-10-09T09:47:26;100074.66;;;18.57;86.97
75775;BME280;64505;51.458;7.556;2023-10-09T09:49:29;100066.91;;;18.71;87.52
75775;BME280;64505;51.458;7.556;2023-10-09T09:51:33;100065.03;;;18.77;85.51
75775;BME280;64505;51.458;7.556;2023-10-09T09:53:34;100067.44;;;18.88;86.48
75775;BME280;64505;51.458;7.556;2023-10-09T09:55:38;100066.13;;;18.81;83.77
75775;BME280;64505;51.458;7.556;2023-10-09T09:57:44;100060.22;;;18.89;85.08
75775;BME280;64505;51.458;7.556;2023-10-09T09:59:47;100063.16;;;18.97;85.50
75775;BME280;64505;51.458;7.556;2023-10-09T10:01:54;100066.38;;;18.94;84.50
75775;BME280;64505;51.458;7.556;2023-10-09T10:04:07;100079.00;;;18.99;84.72
75775;BME280;64505;51.458;7.556;2023-10-09T10:06:18;100100.94;;;19.11;85.36
75775;BME280;64505;51.458;7.556;2023-10-09T10:08:22;100109.53;;;19.08;82.58
75775;BME280;64505;51.458;7.556;2023-10-09T10:10:37;100118.38;;;19.03;84.26
75775;BME280;64505;51.458;7.556;2023-10-09T10:12:50;100123.19;;;19.06;83.10
75775;BME280;64505;51.458;7.556;2023-10-09T10:15:01;100118.13;;;19.20;82.19
75775;BME280;64505;51.458;7.556;2023-10-09T10:17:16;100135.50;;;19.17;80.76
75775;BME280;64505;51.458;7.556;2023-10-09T10:19:22;100148.41;;;19.26;81.83
75775;BME280;64505;51.458;7.556;2023-10-09T10:21:24;100147.88;;;19.39;82.81
75775;BME280;64505;51.458;7.556;2023-10-09T10:23:34;100156.72;;;19.44;82.08
75775;BME280;64505;51.458;7.556;2023-10-09T10:25:38;100142.75;;;19.32;80.79
75775;BME280;64505;51.458;7.556;2023-10-09T10:28:20;100150.78;;;19.32;80.81
75775;BME280;64505;51.458;7.556;2023-10-09T10:30:46;100146.78;;;19.50;81.16
75775;BME280;64505;51.458;7.556;2023-10-09T10:32:54;100148.94;;;19.43;81.55
75775;BME280;64505;51.458;7.556;2023-10-09T10:34:56;100134.72;;;19.47;80.92
75775;BME280;64505;51.458;7.556;2023-10-09T10:36:58;100129.88;;;19.54;80.93
75775;BME280;64505;51.458;7.556;2023-10-09T10:39:04;100130.69;;;19.60;81.27
75775;BME280;64505;51.458;7.556;2023-10-09T10:41:11;100137.38;;;19.57;80.46
75775;BME280;64505;51.458;7.556;2023-10-09T10:43:16;100139.28;;;19.47;80.67
75775;BME280;64505;51.458;7.556;2023-10-09T10:45:34;100134.47;;;19.39;81.62
75775;BME280;64505;51.458;7.556;2023-10-09T10:47:37;100129.09;;;19.44;80.60
75775;BME280;64505;51.458;7.556;2023-10-09T10:49:44;100135.53;;;19.43;79.91
75775;BME280;64505;51.458;7.556;2023-10-09T10:51:50;100137.16;;;19.44;80.46
75775;BME280;64505;51.458;7.556;2023-10-09T10:54:24;100139.00;;;19.58;80.61
75775;BME280;64505;51.458;7.556;2023-10-09T10:56:37;100166.09;;;19.47;80.22
75775;BME280;64505;51.458;7.556;2023-10-09T10:58:39;100161.00;;;19.30;79.82
75775;BME280;64505;51.458;7.556;2023-10-09T11:01:10;100160.47;;;19.43;80.05
75775;BME280;64505;51.458;7.556;2023-10-09T11:03:19;100147.34;;;19.52;80.37